Time,TemperatureF,DewpointF,PressureIn,WindDirection,WindDirectionDegrees,WindSpeedMPH,WindSpeedGustMPH,Humidity,HourlyPrecipIn,Conditions,Clouds,dailyrainin,SolarRadiationWatts/m^2,SoftwareType,DateUTC
2013-01-08 00:22:00,60.0,12.0,30.02,SSE,168,13.0,39.0,15,0.00,,,0.00,0.000000,,2013-01-08 08:22:00,
2013-01-08 00:32:00,60.0,12.0,30.02,SSE,168,13.0,39.0,15,0.00,,,0.00,0.000000,,2013-01-08 08:32:00,
2013-01-08 00:42:00,60.0,12.0,30.02,SSE,168,13.0,39.0,15,0.00,,,0.00,0.000000,,2013-01-08 08:42:00,
2013-01-08 00:52:00,60.0,12.0,30.02,SSE,168,13.0,39.0,15,0.00,,,0.00,0.000000,,2013-01-08 08:52:00,
2013-01-08 01:22:00,56.0,13.0,30.02,NE,46,8.0,34.0,18,0.00,,,0.00,0.000000,,2013-01-08 09:22:00,
2013-01-08 01:32:00,56.0,13.0,30.02,NE,46,8.0,34.0,18,0.00,,,0.00,0.000000,,2013-01-08 09:32:00,
2013-01-08 01:42:00,56.0,13.0,30.02,NE,46,8.0,34.0,18,0.00,,,0.00,0.000000,,2013-01-08 09:42:00,
2013-01-08 01:52:00,56.0,13.0,30.02,NE,46,8.0,34.0,18,0.00,,,0.00,0.000000,,2013-01-08 09:52:00,
2013-01-08 02:22:00,57.0,11.0,30.02,WNW,294,18.0,42.0,16,0.00,,,0.00,0.000000,,2013-01-08 10:22:00,
2013-01-08 02:32:00,57.0,11.0,30.02,WNW,294,18.0,42.0,16,0.00,,,0.00,0.000000,,2013-01-08 10:32:00,
2013-01-08 03:22:00,57.0,14.0,30.01,SW,215,9.0,40.0,18,0.00,,,0.00,0.000000,,2013-01-08 11:22:00,
2013-01-08 03:32:00,57.0,14.0,30.01,SW,215,9.0,40.0,18,0.00,,,0.00,0.000000,,2013-01-08 11:32:00,
2013-01-08 03:42:00,57.0,14.0,30.01,SW,215,9.0,40.0,18,0.00,,,0.00,0.000000,,2013-01-08 11:42:00,
2013-01-08 03:53:00,57.0,14.0,30.01,SW,215,9.0,40.0,18,0.00,,,0.00,0.000000,,2013-01-08 11:53:00,
2013-01-08 04:22:00,59.0,17.0,30.02,NNW,346,9.0,45.0,19,0.00,,,0.00,0.000000,,2013-01-08 12:22:00,
2013-01-08 04:32:00,59.0,17.0,30.02,NNW,346,9.0,45.0,19,0.00,,,0.00,0.000000,,2013-01-08 12:32:00,
2013-01-08 04:42:00,59.0,17.0,30.02,NNW,346,9.0,45.0,19,0.00,,,0.00,0.000000,,2013-01-08 12:42:00,
2013-01-08 04:52:00,59.0,17.0,30.02,NNW,346,9.0,45.0,19,0.00,,,0.00,0.000000,,2013-01-08 12:52:00,
2013-01-08 05:22:00,59.0,18.0,30.01,North,4,16.0,57.0,20,0.00,,,0.00,0.000000,,2013-01-08 13:22:00,
2013-01-08 05:32:00,59.0,18.0,30.01,North,4,16.0,57.0,20,0.00,,,0.00,0.000000,,2013-01-08 13:32:00,
2013-01-08 05:42:00,59.0,18.0,30.01,North,4,16.0,57.0,20,0.00,,,0.00,0.000000,,2013-01-08 13:42:00,
2013-01-08 05:52:00,59.0,18.0,30.01,North,4,16.0,57.0,20,0.00,,,0.00,0.000000,,2013-01-08 13:52:00,
2013-01-08 06:23:00,59.0,21.0,30.01,NW,325,16.0,39.0,23,0.00,,,0.00,0.000000,,2013-01-08 14:23:00,
2013-01-08 06:33:00,59.0,21.0,30.01,NW,325,16.0,39.0,23,0.00,,,0.00,0.000000,,2013-01-08 14:33:00,
2013-01-08 06:42:00,59.0,21.0,30.01,NW,325,16.0,39.0,23,0.00,,,0.00,0.000000,,2013-01-08 14:42:00,
2013-01-08 06:53:00,59.0,21.0,30.01,NW,325,16.0,39.0,23,0.00,,,0.00,0.000000,,2013-01-08 14:53:00,
2013-01-08 07:22:00,61.0,25.0,30.02,North,5,15.0,48.0,25,0.00,,,0.00,0.000000,,2013-01-08 15:22:00,
2013-01-08 07:33:00,61.0,25.0,30.02,North,5,15.0,48.0,25,0.00,,,0.00,0.000000,,2013-01-08 15:33:00,
2013-01-08 07:42:00,61.0,25.0,30.02,North,5,15.0,48.0,25,0.00,,,0.00,0.000000,,2013-01-08 15:42:00,
2013-01-08 07:52:00,61.0,25.0,30.02,North,5,15.0,48.0,25,0.00,,,0.00,0.000000,,2013-01-08 15:52:00,
2013-01-08 08:22:00,60.0,24.0,30.05,North,11,14.0,38.0,25,0.00,,,0.00,0.000000,,2013-01-08 16:22:00,
2013-01-08 08:33:00,60.0,24.0,30.05,North,11,14.0,38.0,25,0.00,,,0.00,0.000000,,2013-01-08 16:33:00,
2013-01-08 08:42:00,60.0,24.0,30.05,North,11,14.0,38.0,25,0.00,,,0.00,0.000000,,2013-01-08 16:42:00,
2013-01-08 08:52:00,60.0,24.0,30.05,North,11,14.0,38.0,25,0.00,,,0.00,0.000000,,2013-01-08 16:52:00,
2013-01-08 09:23:00,62.0,29.0,30.07,NE,37,8.0,34.0,29,0.00,,,0.00,65.000000,,2013-01-08 17:23:00,
2013-01-08 09:33:00,62.0,29.0,30.07,NE,37,8.0,34.0,29,0.00,,,0.00,65.000000,,2013-01-08 17:33:00,
2013-01-08 09:42:00,62.0,29.0,30.07,NE,37,8.0,34.0,29,0.00,,,0.00,65.000000,,2013-01-08 17:42:00,
2013-01-08 09:53:00,62.0,29.0,30.07,NE,37,8.0,34.0,29,0.00,,,0.00,65.000000,,2013-01-08 17:53:00,
2013-01-08 10:23:00,66.0,29.0,30.08,East,89,12.0,43.0,25,0.00,,,0.00,310.000000,,2013-01-08 18:23:00,
2013-01-08 10:33:00,66.0,29.0,30.08,East,89,12.0,43.0,25,0.00,,,0.00,310.000000,,2013-01-08 18:33:00,
2013-01-08 10:43:00,66.0,29.0,30.08,East,89,12.0,43.0,25,0.00,,,0.00,310.000000,,2013-01-08 18:43:00,
2013-01-08 10:52:00,66.0,29.0,30.08,East,89,12.0,43.0,25,0.00,,,0.00,310.000000,,2013-01-08 18:52:00,
2013-01-08 11:22:00,69.0,32.0,30.09,SSE,167,11.0,25.0,25,0.00,,,0.00,529.000000,,2013-01-08 19:22:00,
2013-01-08 11:32:00,69.0,32.0,30.09,SSE,167,11.0,25.0,25,0.00,,,0.00,529.000000,,2013-01-08 19:32:00,
2013-01-08 11:42:00,69.0,32.0,30.09,SSE,167,11.0,25.0,25,0.00,,,0.00,529.000000,,2013-01-08 19:42:00,
2013-01-08 11:53:00,69.0,32.0,30.09,SSE,167,11.0,25.0,25,0.00,,,0.00,529.000000,,2013-01-08 19:53:00,
2013-01-08 12:22:00,73.0,33.0,30.08,NNE,31,12.0,36.0,23,0.00,,,0.00,690.000000,,2013-01-08 20:22:00,
2013-01-08 12:33:00,73.0,33.0,30.08,NNE,31,12.0,36.0,23,0.00,,,0.00,690.000000,,2013-01-08 20:33:00,
2013-01-08 12:43:00,73.0,33.0,30.08,NNE,31,12.0,36.0,23,0.00,,,0.00,690.000000,,2013-01-08 20:43:00,
2013-01-08 12:53:00,73.0,33.0,30.08,NNE,31,12.0,36.0,23,0.00,,,0.00,690.000000,,2013-01-08 20:53:00,
2013-01-08 13:22:00,74.0,34.0,30.06,NW,313,15.0,46.0,23,0.00,,,0.00,760.000000,,2013-01-08 21:22:00,
2013-01-08 13:33:00,74.0,34.0,30.06,NW,313,15.0,46.0,23,0.00,,,0.00,760.000000,,2013-01-08 21:33:00,
2013-01-08 13:43:00,74.0,34.0,30.06,NW,313,15.0,46.0,23,0.00,,,0.00,760.000000,,2013-01-08 21:43:00,
2013-01-08 13:53:00,74.0,34.0,30.06,NW,313,15.0,46.0,23,0.00,,,0.00,760.000000,,2013-01-08 21:53:00,
2013-01-08 14:22:00,75.0,31.0,30.04,NNE,28,12.0,40.0,20,0.00,,,0.00,784.000000,,2013-01-08 22:22:00,
2013-01-08 14:32:00,75.0,31.0,30.04,NNE,28,12.0,40.0,20,0.00,,,0.00,784.000000,,2013-01-08 22:32:00,
2013-01-08 14:42:00,75.0,31.0,30.04,NNE,28,12.0,40.0,20,0.00,,,0.00,784.000000,,2013-01-08 22:42:00,
2013-01-08 14:52:00,75.0,31.0,30.04,NNE,28,12.0,40.0,20,0.00,,,0.00,784.000000,,2013-01-08 22:52:00,
2013-01-08 15:22:00,70.0,28.0,30.04,NE,46,12.0,36.0,21,0.00,,,0.00,695.000000,,2013-01-08 23:22:00,
2013-01-08 15:32:00,70.0,28.0,30.04,NE,46,12.0,36.0,21,0.00,,,0.00,695.000000,,2013-01-08 23:32:00,
2013-01-08 15:42:00,70.0,28.0,30.04,NE,46,12.0,36.0,21,0.00,,,0.00,695.000000,,2013-01-08 23:42:00,
2013-01-08 15:52:00,70.0,28.0,30.04,NE,46,12.0,36.0,21,0.00,,,0.00,695.000000,,2013-01-08 23:52:00,
2013-01-08 16:22:00,69.0,38.0,30.05,WSW,241,8.0,42.0,32,0.00,,,0.00,542.000000,,2013-01-09 00:22:00,
2013-01-08 16:32:00,69.0,38.0,30.05,WSW,241,8.0,42.0,32,0.00,,,0.00,542.000000,,2013-01-09 00:32:00,
2013-01-08 16:42:00,69.0,38.0,30.05,WSW,241,8.0,42.0,32,0.00,,,0.00,542.000000,,2013-01-09 00:42:00,
2013-01-08 16:52:00,69.0,38.0,30.05,WSW,241,8.0,42.0,32,0.00,,,0.00,542.000000,,2013-01-09 00:52:00,
2013-01-08 17:22:00,66.0,32.0,30.06,NNW,336,7.0,35.0,28,0.00,,,0.00,324.000000,,2013-01-09 01:22:00,
2013-01-08 17:32:00,66.0,32.0,30.06,NNW,336,7.0,35.0,28,0.00,,,0.00,324.000000,,2013-01-09 01:32:00,
2013-01-08 17:42:00,66.0,32.0,30.06,NNW,336,7.0,35.0,28,0.00,,,0.00,324.000000,,2013-01-09 01:42:00,
2013-01-08 17:52:00,66.0,32.0,30.06,NNW,336,7.0,35.0,28,0.00,,,0.00,324.000000,,2013-01-09 01:52:00,
2013-01-08 18:22:00,60.0,28.0,30.07,NE,37,12.0,36.0,29,0.00,,,0.00,23.000000,,2013-01-09 02:22:00,
2013-01-08 18:32:00,60.0,28.0,30.07,NE,37,12.0,36.0,29,0.00,,,0.00,23.000000,,2013-01-09 02:32:00,
2013-01-08 19:22:00,59.0,27.0,30.07,NE,39,8.0,35.0,29,0.00,,,0.00,0.000000,,2013-01-09 03:22:00,
2013-01-08 19:33:00,59.0,27.0,30.07,NE,39,8.0,35.0,29,0.00,,,0.00,0.000000,,2013-01-09 03:33:00,
2013-01-08 19:42:00,59.0,27.0,30.07,NE,39,8.0,35.0,29,0.00,,,0.00,0.000000,,2013-01-09 03:42:00,
2013-01-08 19:52:00,59.0,27.0,30.07,NE,39,8.0,35.0,29,0.00,,,0.00,0.000000,,2013-01-09 03:52:00,
2013-01-08 20:22:00,63.0,28.0,30.07,NE,56,7.0,15.0,26,0.00,,,0.00,0.000000,,2013-01-09 04:22:00,
2013-01-08 20:32:00,63.0,28.0,30.07,NE,56,7.0,15.0,26,0.00,,,0.00,0.000000,,2013-01-09 04:32:00,
2013-01-08 20:42:00,63.0,28.0,30.07,NE,56,7.0,15.0,26,0.00,,,0.00,0.000000,,2013-01-09 04:42:00,
2013-01-08 20:52:00,63.0,28.0,30.07,NE,56,7.0,15.0,26,0.00,,,0.00,0.000000,,2013-01-09 04:52:00,
2013-01-08 21:22:00,61.0,25.0,30.08,NE,49,11.0,18.0,25,0.00,,,0.00,0.000000,,2013-01-09 05:22:00,
2013-01-08 21:33:00,61.0,25.0,30.08,NE,49,11.0,18.0,25,0.00,,,0.00,0.000000,,2013-01-09 05:33:00,
2013-01-08 21:42:00,61.0,25.0,30.08,NE,49,11.0,18.0,25,0.00,,,0.00,0.000000,,2013-01-09 05:42:00,
2013-01-08 21:52:00,61.0,25.0,30.08,NE,49,11.0,18.0,25,0.00,,,0.00,0.000000,,2013-01-09 05:52:00,
2013-01-08 22:22:00,61.0,25.0,30.08,NNE,30,8.0,17.0,25,0.00,,,0.00,0.000000,,2013-01-09 06:22:00,
2013-01-08 22:32:00,61.0,25.0,30.08,NNE,30,8.0,17.0,25,0.00,,,0.00,0.000000,,2013-01-09 06:32:00,
2013-01-08 23:22:00,61.0,27.0,30.10,North,6,6.0,18.0,27,0.00,,,0.00,0.000000,,2013-01-09 07:22:00,
2013-01-08 23:32:00,61.0,27.0,30.10,North,6,6.0,18.0,27,0.00,,,0.00,0.000000,,2013-01-09 07:32:00,
2013-01-08 23:42:00,61.0,27.0,30.10,North,6,6.0,18.0,27,0.00,,,0.00,0.000000,,2013-01-09 07:42:00,
2013-01-08 23:52:00,61.0,27.0,30.10,North,6,6.0,18.0,27,0.00,,,0.00,0.000000,,2013-01-09 07:52:00,